Time;durP1;ratioP1;P1;durP2;ratioP2;P2;SDS_P1;SDS_P2;PMS_P1;PMS_P2;Temp;Humidity;BMP_temperature;BMP_pressure;BME280_temperature;BME280_humidity;BME280_pressure;Samples;Min_cycle;Max_cycle;Signal;HPM_P1;HPM_P2
2022/10/22 00:01:29;;;;;;;;;;;;;;;20.42;33.54;99173.44;4474303;32;34026;-93
2022/10/22 00:03:57;;;;;;;;;;;;;;;20.44;33.66;99169.87;4460112;32;33393;-93
2022/10/22 00:06:24;;;;;;;;;;;;;;;20.50;33.56;99173.25;4456525;32;34110;-93
2022/10/22 00:08:51;;;;;;;;;;;;;;;20.59;33.44;99166.84;4440827;32;32704;-93
2022/10/22 00:11:19;;;;;;;;;;;;;;;20.27;34.05;99162.44;4458652;32;33881;-94
2022/10/22 00:13:46;;;;;;;;;;;;;;;19.91;34.61;99171.25;4478011;32;33342;-95
2022/10/22 00:16:14;;;;;;;;;;;;;;;20.23;34.08;99172.19;4476850;32;34315;-94
2022/10/22 00:18:41;;;;;;;;;;;;;;;20.42;33.91;99170.81;4476546;32;34114;-93
2022/10/22 00:21:08;;;;;;;;;;;;;;;19.80;34.78;99170.63;4471304;32;34194;-93
2022/10/22 00:23:38;;;;;;;;;;;;;;;20.09;34.12;99166.44;4471732;32;34030;-93
2022/10/22 00:26:06;;;;;;;;;;;;;;;20.24;34.09;99165.16;4449298;32;33774;-94
2022/10/22 00:28:33;;;;;;;;;;;;;;;20.20;34.33;99164.38;4473202;31;33899;-94
2022/10/22 00:31:00;;;;;;;;;;;;;;;20.23;34.24;99164.31;4472746;32;33725;-93
2022/10/22 00:33:28;;;;;;;;;;;;;;;20.17;34.39;99161.81;4487952;32;33406;-93
2022/10/22 00:35:55;;;;;;;;;;;;;;;20.38;34.30;99156.00;4456683;32;34654;-95
2022/10/22 00:38:26;;;;;;;;;;;;;;;20.35;34.55;99158.69;4443501;32;34386;-95
2022/10/22 00:40:53;;;;;;;;;;;;;;;20.18;34.89;99160.91;4455876;32;34025;-95
2022/10/22 00:43:21;;;;;;;;;;;;;;;20.34;34.55;99156.97;4455139;32;33308;-94
2022/10/22 00:45:48;;;;;;;;;;;;;;;20.22;34.72;99145.91;4467028;32;35159;-94
2022/10/22 00:48:21;;;;;;;;;;;;;;;20.18;34.73;99142.47;4431894;32;34402;-95
2022/10/22 00:50:49;;;;;;;;;;;;;;;19.93;34.91;99143.12;4440620;32;33669;-94
2022/10/22 00:53:43;;;;;;;;;;;;;;;20.30;34.37;99141.28;4428270;32;33298;-96
2022/10/22 00:56:10;;;;;;;;;;;;;;;20.10;34.72;99147.09;4448888;32;34985;-95
2022/10/22 00:58:39;;;;;;;;;;;;;;;20.35;34.15;99149.94;4468049;32;34103;-95
2022/10/22 01:01:07;;;;;;;;;;;;;;;20.29;34.36;99145.69;4447624;32;33463;-94
2022/10/22 01:03:34;;;;;;;;;;;;;;;20.30;34.31;99144.78;4450077;32;33174;-93
2022/10/22 01:06:03;;;;;;;;;;;;;;;20.23;34.37;99151.12;4462064;32;34965;-94
2022/10/22 01:08:46;;;;;;;;;;;;;;;20.11;34.55;99149.66;4462470;32;34337;-94
2022/10/22 01:11:13;;;;;;;;;;;;;;;20.32;34.20;99142.97;4461328;32;34188;-93
2022/10/22 01:13:45;;;;;;;;;;;;;;;20.34;34.08;99156.97;4460038;32;33492;-94
2022/10/22 01:16:16;;;;;;;;;;;;;;;20.41;33.95;99150.62;4474088;32;33684;-94
2022/10/22 01:19:07;;;;;;;;;;;;;;;20.27;34.24;99144.88;4454990;32;34141;-94
2022/10/22 01:21:35;;;;;;;;;;;;;;;20.38;34.07;99153.34;4459201;32;33753;-95
2022/10/22 01:24:26;;;;;;;;;;;;;;;20.13;34.42;99152.28;4462118;32;33196;-94
2022/10/22 01:26:56;;;;;;;;;;;;;;;19.98;34.41;99147.41;4434568;32;35023;-93
2022/10/22 01:29:28;;;;;;;;;;;;;;;20.02;34.40;99139.41;4468720;32;34217;-93
2022/10/22 01:32:00;;;;;;;;;;;;;;;19.89;34.60;99144.12;4440073;32;34150;-94
2022/10/22 01:34:27;;;;;;;;;;;;;;;20.06;34.27;99145.44;4470036;32;33386;-93
2022/10/22 01:36:55;;;;;;;;;;;;;;;19.98;34.33;99152.69;4433664;32;34596;-94
2022/10/22 01:39:23;;;;;;;;;;;;;;;19.76;34.82;99157.59;4442010;32;34246;-94
2022/10/22 01:41:53;;;;;;;;;;;;;;;19.77;34.90;99159.31;4451316;32;34687;-92
2022/10/22 01:44:43;;;;;;;;;;;;;;;19.81;34.89;99140.81;4472728;32;32880;-93
2022/10/22 01:47:11;;;;;;;;;;;;;;;19.99;34.54;99143.88;4449008;32;34200;-94
2022/10/22 01:49:38;;;;;;;;;;;;;;;20.07;34.57;99147.16;4459866;32;34355;-94
2022/10/22 01:52:08;;;;;;;;;;;;;;;19.72;35.21;99151.56;4455094;32;33411;-94
2022/10/22 01:54:38;;;;;;;;;;;;;;;19.93;34.91;99135.25;4459310;32;32490;-94
2022/10/22 01:57:09;;;;;;;;;;;;;;;19.63;35.36;99141.28;4460187;32;33702;-92
2022/10/22 01:59:55;;;;;;;;;;;;;;;19.14;36.32;99158.16;4457844;32;34924;-93
2022/10/22 02:02:46;;;;;;;;;;;;;;;19.33;36.02;99159.47;4474072;32;34232;-94
2022/10/22 02:05:20;;;;;;;;;;;;;;;19.23;36.28;99149.19;4455194;32;33910;-91
2022/10/22 02:08:10;;;;;;;;;;;;;;;18.87;37.43;99142.09;4428190;32;35294;-93
2022/10/22 02:10:38;;;;;;;;;;;;;;;18.95;37.21;99132.28;4434568;32;33586;-91
2022/10/22 02:13:07;;;;;;;;;;;;;;;19.36;36.02;99125.22;4454780;32;34167;-92
2022/10/22 02:15:35;;;;;;;;;;;;;;;19.16;36.74;99123.03;4473981;32;34003;-94
2022/10/22 02:18:02;;;;;;;;;;;;;;;19.09;36.85;99118.84;4459142;32;34888;-92
2022/10/22 02:20:32;;;;;;;;;;;;;;;19.35;36.28;99127.88;4457309;32;35252;-93
2022/10/22 02:23:10;;;;;;;;;;;;;;;19.48;35.79;99131.09;4456266;32;33513;-92
2022/10/22 02:25:38;;;;;;;;;;;;;;;19.45;35.71;99127.62;4443145;32;34191;-90
2022/10/22 02:28:09;;;;;;;;;;;;;;;19.06;36.33;99125.94;4483458;32;34057;-95
2022/10/22 02:30:36;;;;;;;;;;;;;;;19.40;35.82;99123.38;4450315;32;34285;-92
2022/10/22 02:33:17;;;;;;;;;;;;;;;19.54;35.48;99120.41;4457038;32;34250;-92
2022/10/22 02:35:44;;;;;;;;;;;;;;;19.26;35.71;99126.34;4444260;32;33141;-94
2022/10/22 02:38:15;;;;;;;;;;;;;;;19.18;36.03;99138.78;4472673;32;34994;-92
2022/10/22 02:40:42;;;;;;;;;;;;;;;19.38;35.70;99136.56;4453686;32;32668;-91
2022/10/22 02:43:09;;;;;;;;;;;;;;;19.31;35.92;99134.97;4446740;32;34186;-91
2022/10/22 02:45:36;;;;;;;;;;;;;;;19.63;35.39;99136.00;4460774;32;33231;-92
2022/10/22 02:48:04;;;;;;;;;;;;;;;19.52;35.50;99145.91;4461145;32;34016;-92
2022/10/22 02:50:31;;;;;;;;;;;;;;;19.28;35.68;99155.19;4468744;32;34541;-93
2022/10/22 02:52:58;;;;;;;;;;;;;;;19.14;35.79;99155.53;4452388;32;34354;-91
2022/10/22 02:55:26;;;;;;;;;;;;;;;19.29;35.48;99160.44;4467037;32;33330;-91
2022/10/22 02:57:53;;;;;;;;;;;;;;;19.45;35.16;99153.91;4466555;32;33929;-91
2022/10/22 03:00:20;;;;;;;;;;;;;;;19.43;35.13;99139.97;4467084;32;35066;-92
2022/10/22 03:02:48;;;;;;;;;;;;;;;19.61;34.79;99138.63;4467043;32;34778;-90
2022/10/22 03:05:15;;;;;;;;;;;;;;;19.48;34.87;99138.97;4451715;32;33407;-91
2022/10/22 03:07:42;;;;;;;;;;;;;;;19.22;35.27;99148.31;4452832;32;33246;-92
2022/10/22 03:10:10;;;;;;;;;;;;;;;18.95;35.69;99148.03;4439937;32;34291;-92
2022/10/22 03:12:37;;;;;;;;;;;;;;;19.05;35.52;99147.81;4427485;32;34609;-92
2022/10/22 03:15:05;;;;;;;;;;;;;;;19.33;35.03;99137.56;4437509;32;34107;-91
2022/10/22 03:17:32;;;;;;;;;;;;;;;19.16;35.41;99123.03;4427044;32;33262;-92
2022/10/22 03:19:59;;;;;;;;;;;;;;;19.16;35.23;99120.41;4439583;32;34167;-91
2022/10/22 03:22:27;;;;;;;;;;;;;;;19.22;35.17;99116.78;4439700;32;34726;-91
2022/10/22 03:24:57;;;;;;;;;;;;;;;18.75;36.00;99118.69;4422204;32;33949;-92
2022/10/22 03:27:24;;;;;;;;;;;;;;;19.07;35.44;99104.88;4453841;32;32674;-92
2022/10/22 03:29:52;;;;;;;;;;;;;;;18.98;35.74;99107.72;4455211;32;35393;-93
2022/10/22 03:32:19;;;;;;;;;;;;;;;18.81;35.88;99115.94;4474172;32;34155;-91
2022/10/22 03:34:46;;;;;;;;;;;;;;;18.70;36.27;99120.53;4450788;32;32295;-91
2022/10/22 03:37:13;;;;;;;;;;;;;;;18.78;35.95;99113.38;4426407;32;34685;-91
2022/10/22 03:39:40;;;;;;;;;;;;;;;18.98;35.88;99117.31;4461516;32;33729;-91
2022/10/22 03:42:08;;;;;;;;;;;;;;;19.00;35.86;99128.69;4458288;32;34118;-90
2022/10/22 03:44:38;;;;;;;;;;;;;;;19.17;35.65;99116.03;4456198;32;34273;-92
2022/10/22 03:47:06;;;;;;;;;;;;;;;19.25;35.50;99115.88;4457294;32;33856;-90
2022/10/22 03:49:33;;;;;;;;;;;;;;;19.26;35.44;99105.31;4456120;32;35120;-92
2022/10/22 03:52:05;;;;;;;;;;;;;;;19.36;35.27;99095.44;4460064;32;34350;-92
2022/10/22 03:54:32;;;;;;;;;;;;;;;19.33;35.37;99091.12;4466335;32;32659;-91
2022/10/22 03:56:59;;;;;;;;;;;;;;;18.94;36.08;99096.41;4490545;32;34187;-93
2022/10/22 03:59:27;;;;;;;;;;;;;;;19.10;35.76;99094.28;4475442;32;34396;-91
2022/10/22 04:01:54;;;;;;;;;;;;;;;18.68;36.43;99106.56;4461713;32;34426;-92
2022/10/22 04:04:21;;;;;;;;;;;;;;;18.53;36.70;99115.63;4474452;32;33421;-96
2022/10/22 04:06:49;;;;;;;;;;;;;;;18.79;36.38;99122.13;4472036;32;34020;-90
2022/10/22 04:09:16;;;;;;;;;;;;;;;18.89;36.34;99126.28;4461503;32;35219;-90
2022/10/22 04:11:43;;;;;;;;;;;;;;;18.97;36.08;99119.09;4457541;32;34199;-96
2022/10/22 04:14:11;;;;;;;;;;;;;;;18.92;36.20;99115.72;4457421;32;33236;-91
2022/10/22 04:16:39;;;;;;;;;;;;;;;18.95;36.12;99111.25;4474355;32;34376;-91
2022/10/22 04:19:06;;;;;;;;;;;;;;;18.75;36.15;99113.44;4455537;32;34013;-91
2022/10/22 04:21:33;;;;;;;;;;;;;;;18.98;35.73;99120.84;4445978;32;33720;-91
2022/10/22 04:24:01;;;;;;;;;;;;;;;18.82;35.95;99115.03;4470612;32;33468;-91
2022/10/22 04:26:28;;;;;;;;;;;;;;;18.92;35.83;99115.72;4474317;32;34115;-92
2022/10/22 04:28:55;;;;;;;;;;;;;;;18.81;36.00;99126.44;4481291;31;34111;-91
2022/10/22 04:31:24;;;;;;;;;;;;;;;18.87;35.53;99113.19;4470431;32;33315;-92
2022/10/22 04:33:55;;;;;;;;;;;;;;;18.81;35.94;99100.19;4455915;32;34149;-92
2022/10/22 04:36:22;;;;;;;;;;;;;;;18.86;35.93;99100.94;4450668;32;34961;-93
2022/10/22 04:38:54;;;;;;;;;;;;;;;18.87;36.00;99100.06;4464065;32;34216;-91
2022/10/22 04:41:24;;;;;;;;;;;;;;;19.01;35.74;99112.00;4439906;32;34833;-93
2022/10/22 04:43:52;;;;;;;;;;;;;;;19.07;35.54;99104.00;4442347;32;34816;-93
2022/10/22 04:46:19;;;;;;;;;;;;;;;19.20;35.41;99110.69;4470138;32;33430;-91
2022/10/22 04:48:47;;;;;;;;;;;;;;;19.16;35.32;99103.78;4459939;32;33677;-91
2022/10/22 04:51:17;;;;;;;;;;;;;;;19.23;35.17;99109.75;4463742;32;33019;-92
2022/10/22 04:53:46;;;;;;;;;;;;;;;19.04;35.55;99102.28;4458038;32;32995;-92
2022/10/22 04:56:15;;;;;;;;;;;;;;;18.98;35.82;99104.19;4457020;32;34599;-94
2022/10/22 04:58:42;;;;;;;;;;;;;;;19.02;35.76;99090.97;4456724;32;34088;-92
2022/10/22 05:01:14;;;;;;;;;;;;;;;18.82;36.18;99103.66;4462808;32;34543;-91
2022/10/22 05:03:42;;;;;;;;;;;;;;;18.98;35.84;99115.59;4480441;32;32968;-92
2022/10/22 05:06:09;;;;;;;;;;;;;;;18.93;35.80;99118.28;4445516;32;33894;-92
2022/10/22 05:08:37;;;;;;;;;;;;;;;19.01;35.73;99115.50;4466732;32;35167;-89
2022/10/22 05:11:13;;;;;;;;;;;;;;;18.78;36.11;99102.88;4468186;32;34168;-91
2022/10/22 05:13:40;;;;;;;;;;;;;;;18.89;35.92;99100.88;4457582;32;33160;-90
2022/10/22 05:16:08;;;;;;;;;;;;;;;18.65;36.28;99107.50;4450390;32;33363;-91
2022/10/22 05:18:35;;;;;;;;;;;;;;;18.61;36.44;99094.47;4450755;32;33868;-91
2022/10/22 05:21:03;;;;;;;;;;;;;;;18.59;36.41;99104.13;4450900;32;33359;-91
2022/10/22 05:23:31;;;;;;;;;;;;;;;18.42;36.76;99107.97;4438740;32;34376;-92
2022/10/22 05:26:02;;;;;;;;;;;;;;;18.26;37.01;99114.41;4441303;32;33247;-91
2022/10/22 05:28:30;;;;;;;;;;;;;;;18.33;36.03;99105.50;4478618;32;35239;-91
2022/10/22 05:30:58;;;;;;;;;;;;;;;18.31;36.38;99116.94;4457167;32;34086;-90
2022/10/22 05:33:26;;;;;;;;;;;;;;;17.90;36.74;99101.06;4467833;32;32716;-93
2022/10/22 05:35:53;;;;;;;;;;;;;;;18.15;36.47;99111.13;4451298;32;34179;-93
2022/10/22 05:38:30;;;;;;;;;;;;;;;18.32;36.29;99116.91;4459054;32;34244;-93
2022/10/22 05:41:05;;;;;;;;;;;;;;;18.55;36.05;99108.56;4468617;32;34486;-94
2022/10/22 05:43:42;;;;;;;;;;;;;;;18.66;35.97;99105.72;4434070;32;34119;-92
2022/10/22 05:46:10;;;;;;;;;;;;;;;18.84;35.69;99102.75;4469621;32;33878;-93
2022/10/22 05:48:38;;;;;;;;;;;;;;;18.81;35.89;99097.56;4464066;32;34925;-93
2022/10/22 05:51:08;;;;;;;;;;;;;;;18.90;35.56;99112.25;4461261;32;34367;-94
2022/10/22 05:53:35;;;;;;;;;;;;;;;18.06;35.91;99117.41;4455618;32;33142;-93
2022/10/22 05:56:04;;;;;;;;;;;;;;;18.47;35.88;99116.59;4452704;32;34099;-91
2022/10/22 05:58:32;;;;;;;;;;;;;;;18.53;35.95;99118.25;4462532;32;34190;-94
2022/10/22 06:01:03;;;;;;;;;;;;;;;18.51;35.78;99111.28;4453839;32;34865;-94
2022/10/22 06:03:31;;;;;;;;;;;;;;;18.45;36.22;99115.78;4467928;32;33261;-92
2022/10/22 06:05:59;;;;;;;;;;;;;;;18.82;35.62;99125.53;4438460;32;33378;-93
2022/10/22 06:08:26;;;;;;;;;;;;;;;18.71;36.04;99148.53;4452804;32;34802;-94
2022/10/22 06:10:54;;;;;;;;;;;;;;;18.95;35.46;99150.66;4453768;32;35013;-95
2022/10/22 06:13:21;;;;;;;;;;;;;;;19.09;35.28;99155.63;4467714;32;32897;-93
2022/10/22 06:15:49;;;;;;;;;;;;;;;18.61;36.08;99152.22;4468429;32;34160;-94
2022/10/22 06:18:17;;;;;;;;;;;;;;;19.06;35.32;99146.94;4453418;32;34623;-93
2022/10/22 06:20:44;;;;;;;;;;;;;;;18.45;35.75;99152.53;4453818;32;33915;-93
2022/10/22 06:23:11;;;;;;;;;;;;;;;18.24;36.07;99148.53;4467462;32;33293;-94
2022/10/22 06:25:39;;;;;;;;;;;;;;;18.37;36.00;99141.31;4453520;32;34970;-92
2022/10/22 06:28:06;;;;;;;;;;;;;;;18.56;35.80;99143.56;4467267;32;34117;-93
2022/10/22 06:30:33;;;;;;;;;;;;;;;18.34;35.92;99137.91;4453165;32;34457;-93
2022/10/22 06:33:00;;;;;;;;;;;;;;;17.49;37.68;99139.31;4454573;32;33068;-91
2022/10/22 06:35:28;;;;;;;;;;;;;;;17.62;37.43;99141.75;4443898;32;34764;-93
2022/10/22 06:37:55;;;;;;;;;;;;;;;17.25;37.85;99143.16;4476591;32;35128;-93
2022/10/22 06:40:23;;;;;;;;;;;;;;;17.57;37.46;99146.19;4455531;32;33168;-93
2022/10/22 06:42:50;;;;;;;;;;;;;;;17.21;38.41;99161.59;4454319;32;33092;-96
2022/10/22 06:45:18;;;;;;;;;;;;;;;17.06;38.09;99167.91;4474809;32;34954;-92
2022/10/22 06:47:46;;;;;;;;;;;;;;;17.99;36.76;99163.00;4483693;32;35153;-94
2022/10/22 06:50:14;;;;;;;;;;;;;;;17.23;38.05;99167.66;4457406;32;34270;-93
2022/10/22 06:52:41;;;;;;;;;;;;;;;17.15;38.62;99159.03;4470638;32;34048;-95
2022/10/22 06:55:09;;;;;;;;;;;;;;;16.61;39.62;99164.06;4472137;32;34826;-90
2022/10/22 06:57:36;;;;;;;;;;;;;;;16.34;40.51;99168.72;4452834;32;33444;-91
2022/10/22 07:00:08;;;;;;;;;;;;;;;16.50;40.34;99162.44;4446463;32;33229;-93
2022/10/22 07:02:35;;;;;;;;;;;;;;;16.32;41.19;99173.09;4457832;32;33257;-90
2022/10/22 07:05:03;;;;;;;;;;;;;;;17.02;39.51;99176.69;4461789;32;32906;-90
2022/10/22 07:07:30;;;;;;;;;;;;;;;17.56;38.41;99163.66;4466525;32;35229;-91
2022/10/22 07:09:57;;;;;;;;;;;;;;;17.40;39.13;99151.69;4466792;32;34138;-96
2022/10/22 07:12:24;;;;;;;;;;;;;;;17.40;39.22;99151.69;4455606;32;33093;-94
2022/10/22 07:15:00;;;;;;;;;;;;;;;17.35;39.32;99158.75;4457810;32;34836;-91
2022/10/22 07:17:27;;;;;;;;;;;;;;;17.57;38.96;99152.28;4471039;32;34824;-93
2022/10/22 07:19:57;;;;;;;;;;;;;;;17.02;40.04;99161.84;4484656;32;34172;-92
2022/10/22 07:22:25;;;;;;;;;;;;;;;16.80;40.85;99160.38;4444362;32;32865;-92
2022/10/22 07:24:52;;;;;;;;;;;;;;;17.50;39.05;99148.03;4457460;32;33705;-95
2022/10/22 07:27:19;;;;;;;;;;;;;;;17.42;38.96;99150.75;4441563;32;35491;-95
2022/10/22 07:29:47;;;;;;;;;;;;;;;17.57;39.00;99156.66;4434885;32;34239;-94
2022/10/22 07:32:14;;;;;;;;;;;;;;;17.32;39.38;99154.44;4442211;32;32268;-94
2022/10/22 07:34:41;;;;;;;;;;;;;;;17.32;39.38;99164.91;4441816;32;32775;-94
2022/10/22 07:37:10;;;;;;;;;;;;;;;17.50;38.83;99164.66;4455153;32;33474;-93
2022/10/22 07:39:37;;;;;;;;;;;;;;;17.67;39.04;99161.75;4456207;32;34492;-94
2022/10/22 07:42:04;;;;;;;;;;;;;;;18.08;38.06;99154.13;4457534;32;32944;-96
2022/10/22 07:44:32;;;;;;;;;;;;;;;17.11;39.83;99150.34;4442995;32;32692;-95
2022/10/22 07:46:59;;;;;;;;;;;;;;;17.52;39.34;99147.13;4470275;32;35128;-94
2022/10/22 07:49:27;;;;;;;;;;;;;;;17.65;39.09;99141.69;4457410;32;33941;-95
2022/10/22 07:51:55;;;;;;;;;;;;;;;18.14;38.22;99151.38;4455953;32;33299;-95
2022/10/22 07:54:31;;;;;;;;;;;;;;;17.89;38.85;99148.31;4462376;32;33730;-95
2022/10/22 07:56:59;;;;;;;;;;;;;;;18.56;37.60;99159.31;4491309;32;34214;-95
2022/10/22 07:59:26;;;;;;;;;;;;;;;18.43;38.02;99159.56;4464325;32;34354;-94
2022/10/22 08:01:53;;;;;;;;;;;;;;;18.58;37.77;99157.53;4473896;32;32386;-94
2022/10/22 08:04:22;;;;;;;;;;;;;;;18.66;37.98;99150.38;4446739;32;32924;-95
2022/10/22 08:06:49;;;;;;;;;;;;;;;18.58;38.66;99160.16;4486975;32;33351;-95
2022/10/22 08:09:17;;;;;;;;;;;;;;;18.46;38.54;99170.00;4474058;32;32771;-96
2022/10/22 08:11:49;;;;;;;;;;;;;;;19.01;37.87;99161.94;4464082;32;33742;-95
2022/10/22 08:14:16;;;;;;;;;;;;;;;19.47;37.72;99159.12;4471411;32;34660;-93
2022/10/22 08:16:43;;;;;;;;;;;;;;;19.99;36.61;99157.88;4457581;32;33696;-93
2022/10/22 08:19:12;;;;;;;;;;;;;;;20.06;35.68;99150.72;4441523;32;33725;-95
2022/10/22 08:21:40;;;;;;;;;;;;;;;20.04;35.91;99150.75;4456483;32;32906;-95
2022/10/22 08:24:07;;;;;;;;;;;;;;;18.83;37.63;99165.84;4434731;32;34073;-96
2022/10/22 08:26:37;;;;;;;;;;;;;;;19.19;37.63;99161.53;4433162;32;35632;-94
2022/10/22 08:29:07;;;;;;;;;;;;;;;20.11;35.71;99148.81;4436933;32;35461;-95
2022/10/22 08:31:36;;;;;;;;;;;;;;;20.45;34.95;99155.81;4448684;32;33142;-94
2022/10/22 08:34:04;;;;;;;;;;;;;;;20.31;37.32;99161.47;4471051;32;34196;-95
2022/10/22 08:36:31;;;;;;;;;;;;;;;20.64;35.32;99163.16;4472043;32;34081;-94
2022/10/22 08:38:59;;;;;;;;;;;;;;;20.23;35.58;99159.03;4471561;32;33824;-95
2022/10/22 08:41:26;;;;;;;;;;;;;;;20.45;35.12;99164.56;4464859;32;33303;-95
2022/10/22 08:44:12;;;;;;;;;;;;;;;19.85;36.20;99158.25;4458572;32;34391;-96
2022/10/22 08:46:58;;;;;;;;;;;;;;;19.31;37.13;99169.13;4470332;32;35132;-95
2022/10/22 08:49:27;;;;;;;;;;;;;;;19.99;36.01;99170.19;4468221;32;34828;-94
2022/10/22 08:51:55;;;;;;;;;;;;;;;20.13;36.93;99168.94;4465413;32;34086;-94
2022/10/22 08:54:52;;;;;;;;;;;;;;;20.62;35.26;99166.78;4469188;32;34957;-93
2022/10/22 08:57:34;;;;;;;;;;;;;;;20.81;34.81;99167.97;4478057;32;33825;-94
2022/10/22 09:00:24;;;;;;;;;;;;;;;20.75;35.02;99160.25;4476798;32;33637;-96
2022/10/22 09:03:05;;;;;;;;;;;;;;;20.72;34.97;99157.72;4464932;32;32954;-95
2022/10/22 09:05:41;;;;;;;;;;;;;;;20.59;35.06;99172.13;4458531;32;34194;-93
2022/10/22 09:08:11;;;;;;;;;;;;;;;21.05;34.22;99171.66;4470975;32;34305;-93
2022/10/22 09:10:39;;;;;;;;;;;;;;;20.15;35.95;99174.12;4489535;32;34925;-93
2022/10/22 09:13:07;;;;;;;;;;;;;;;20.69;35.16;99168.34;4460765;32;33390;-94
2022/10/22 09:15:40;;;;;;;;;;;;;;;20.33;35.54;99160.50;4455079;32;32497;-95
2022/10/22 09:18:19;;;;;;;;;;;;;;;19.37;37.42;99166.38;4435659;32;33307;-95
2022/10/22 09:20:49;;;;;;;;;;;;;;;20.13;36.64;99162.81;4468409;32;32209;-95
2022/10/22 09:23:45;;;;;;;;;;;;;;;20.36;35.60;99159.56;4468795;32;33164;-95
2022/10/22 09:26:14;;;;;;;;;;;;;;;19.57;37.52;99157.16;4447167;32;34336;-95
2022/10/22 09:28:41;;;;;;;;;;;;;;;20.67;35.37;99162.22;4471094;32;34010;-96
2022/10/22 09:31:12;;;;;;;;;;;;;;;20.17;36.46;99167.09;4471450;32;34203;-96
2022/10/22 09:33:41;;;;;;;;;;;;;;;20.33;36.32;99173.66;4457859;32;33925;-96
2022/10/22 09:36:12;;;;;;;;;;;;;;;20.41;36.12;99179.56;4461665;32;34378;-96
2022/10/22 09:38:40;;;;;;;;;;;;;;;20.28;36.39;99187.88;4458812;32;33189;-94
2022/10/22 09:41:08;;;;;;;;;;;;;;;20.53;36.26;99182.81;4442720;32;34064;-96
2022/10/22 09:43:35;;;;;;;;;;;;;;;20.20;36.88;99174.91;4455352;32;32997;-96
2022/10/22 09:46:03;;;;;;;;;;;;;;;20.39;36.69;99191.94;4452850;32;33483;-96
2022/10/22 09:48:49;;;;;;;;;;;;;;;20.68;36.33;99186.81;4460299;32;33121;-94
2022/10/22 09:51:18;;;;;;;;;;;;;;;20.78;36.06;99170.69;4442341;32;34412;-94
2022/10/22 09:53:56;;;;;;;;;;;;;;;20.65;36.19;99169.34;4455193;32;32122;-95
2022/10/22 09:56:24;;;;;;;;;;;;;;;21.01;35.70;99169.16;4453483;32;34274;-95
2022/10/22 09:58:52;;;;;;;;;;;;;;;20.67;36.34;99162.22;4454814;32;35241;-95
2022/10/22 10:01:26;;;;;;;;;;;;;;;20.81;36.03;99175.88;4443440;32;33394;-95
2022/10/22 10:04:01;;;;;;;;;;;;;;;20.70;36.50;99171.84;4455290;32;33272;-95
2022/10/22 10:06:34;;;;;;;;;;;;;;;20.67;36.90;99170.13;4468243;32;33850;-95
2022/10/22 10:09:05;;;;;;;;;;;;;;;20.88;36.18;99168.69;4454457;32;35049;-95
2022/10/22 10:11:37;;;;;;;;;;;;;;;20.93;36.50;99163.25;4454749;32;34114;-95
2022/10/22 10:14:04;;;;;;;;;;;;;;;20.29;37.77;99158.84;4468788;32;33098;-95
2022/10/22 10:16:31;;;;;;;;;;;;;;;19.70;38.95;99156.00;4480768;32;34170;-95
2022/10/22 10:19:17;;;;;;;;;;;;;;;20.62;37.53;99162.37;4480393;32;33145;-94
2022/10/22 10:22:04;;;;;;;;;;;;;;;20.96;36.49;99150.00;4454505;32;33624;-94
2022/10/22 10:24:37;;;;;;;;;;;;;;;21.49;35.67;99164.19;4454339;32;33228;-94
2022/10/22 10:27:14;;;;;;;;;;;;;;;21.68;35.30;99166.25;4467257;32;32608;-94
2022/10/22 10:29:46;;;;;;;;;;;;;;;20.31;37.66;99157.06;4468781;32;35206;-95
2022/10/22 10:32:29;;;;;;;;;;;;;;;20.42;37.71;99159.41;4440776;32;34928;-95
2022/10/22 10:35:00;;;;;;;;;;;;;;;20.89;37.11;99162.47;4441607;32;33205;-94
2022/10/22 10:37:28;;;;;;;;;;;;;;;20.92;36.92;99154.50;4453957;32;35038;-95
2022/10/22 10:39:56;;;;;;;;;;;;;;;20.84;36.94;99154.72;4455031;32;33985;-94
2022/10/22 10:42:32;;;;;;;;;;;;;;;20.14;38.57;99156.63;4441474;32;33302;-95
2022/10/22 10:45:18;;;;;;;;;;;;;;;21.17;36.57;99159.03;4456398;32;33268;-95
2022/10/22 10:47:57;;;;;;;;;;;;;;;21.08;37.17;99171.56;4470727;32;34034;-95
2022/10/22 10:50:30;;;;;;;;;;;;;;;21.45;36.70;99182.81;4456457;32;34188;-94
2022/10/22 10:53:06;;;;;;;;;;;;;;;20.44;38.63;99175.16;4440083;32;33862;-95
2022/10/22 10:55:39;;;;;;;;;;;;;;;20.87;36.98;99183.63;4431287;32;32004;-95
2022/10/22 10:58:13;;;;;;;;;;;;;;;20.54;38.33;99182.78;4456072;32;34111;-94
2022/10/22 11:01:04;;;;;;;;;;;;;;;21.10;37.01;99174.16;4467857;32;33845;-94
2022/10/22 11:03:44;;;;;;;;;;;;;;;21.24;36.80;99177.25;4466265;32;34012;-95
2022/10/22 11:06:13;;;;;;;;;;;;;;;21.85;36.48;99175.31;4457813;32;32782;-95
2022/10/22 11:08:57;;;;;;;;;;;;;;;22.15;36.02;99167.31;4446246;32;33601;-94
2022/10/22 11:11:30;;;;;;;;;;;;;;;22.40;35.55;99177.06;4443493;32;34622;-95
2022/10/22 11:14:21;;;;;;;;;;;;;;;22.62;34.83;99166.59;4456171;32;33295;-96
2022/10/22 11:17:14;;;;;;;;;;;;;;;22.18;35.28;99163.72;4469222;32;33204;-94
2022/10/22 11:19:42;;;;;;;;;;;;;;;22.43;35.06;99166.38;4475146;32;33090;-94
2022/10/22 11:22:32;;;;;;;;;;;;;;;22.85;34.59;99163.09;4465268;32;34710;-95
2022/10/22 11:25:12;;;;;;;;;;;;;;;22.54;34.96;99158.91;4447330;32;34182;-95
2022/10/22 11:27:45;;;;;;;;;;;;;;;22.60;35.15;99150.75;4465979;32;34039;-94
2022/10/22 11:30:17;;;;;;;;;;;;;;;22.54;35.63;99148.34;4460671;32;32852;-93
2022/10/22 11:32:54;;;;;;;;;;;;;;;21.72;36.42;99141.50;4467283;32;34804;-93
2022/10/22 11:35:26;;;;;;;;;;;;;;;22.89;34.63;99144.41;4463844;32;35233;-94
2022/10/22 11:37:55;;;;;;;;;;;;;;;23.02;34.48;99139.53;4457290;32;34346;-93
2022/10/22 11:40:35;;;;;;;;;;;;;;;22.77;35.65;99145.72;4449294;32;33808;-95
2022/10/22 11:43:04;;;;;;;;;;;;;;;23.15;35.21;99140.81;4457017;32;33597;-95
2022/10/22 11:45:47;;;;;;;;;;;;;;;23.13;36.20;99139.13;4473599;32;34808;-93
2022/10/22 11:48:16;;;;;;;;;;;;;;;22.96;35.88;99139.78;4456531;32;33393;-95
2022/10/22 11:50:46;;;;;;;;;;;;;;;23.40;35.36;99123.94;4464865;32;34313;-92
2022/10/22 11:53:14;;;;;;;;;;;;;;;23.63;35.09;99121.22;4455027;32;34343;-94
2022/10/22 11:55:49;;;;;;;;;;;;;;;23.52;34.30;99118.16;4450159;32;33127;-93
2022/10/22 11:58:37;;;;;;;;;;;;;;;23.32;34.24;99113.66;4449098;32;32877;-92
2022/10/22 12:01:08;;;;;;;;;;;;;;;22.86;34.89;99119.88;4452766;32;34673;-92
2022/10/22 12:03:39;;;;;;;;;;;;;;;23.33;34.05;99117.19;4447032;32;34260;-91
2022/10/22 12:06:14;;;;;;;;;;;;;;;22.98;34.85;99127.34;4451817;32;34467;-91
2022/10/22 12:08:44;;;;;;;;;;;;;;;22.24;36.57;99121.28;4467528;32;33597;-91
2022/10/22 12:11:17;;;;;;;;;;;;;;;22.75;35.09;99122.91;4454336;32;33973;-91
2022/10/22 12:13:57;;;;;;;;;;;;;;;23.14;35.12;99109.09;4463153;32;34343;-91
2022/10/22 12:16:35;;;;;;;;;;;;;;;23.22;35.05;99114.94;4466520;32;34155;-92
2022/10/22 12:19:22;;;;;;;;;;;;;;;22.55;36.16;99121.88;4430441;32;33114;-91
2022/10/22 12:21:53;;;;;;;;;;;;;;;22.01;36.68;99122.91;4456420;32;33914;-95
2022/10/22 12:24:21;;;;;;;;;;;;;;;22.58;36.10;99118.28;4427911;32;35156;-93
2022/10/22 12:26:51;;;;;;;;;;;;;;;22.46;36.54;99118.69;4436330;32;34346;-95
2022/10/22 12:29:21;;;;;;;;;;;;;;;22.71;35.86;99113.38;4449159;32;32987;-93
2022/10/22 12:31:49;;;;;;;;;;;;;;;22.51;36.45;99111.50;4459789;32;33762;-94
2022/10/22 12:34:17;;;;;;;;;;;;;;;22.80;35.54;99111.22;4477212;32;34266;-95
2022/10/22 12:37:01;;;;;;;;;;;;;;;22.92;36.07;99109.06;4449103;32;34163;-92
2022/10/22 12:39:28;;;;;;;;;;;;;;;23.05;35.84;99103.25;4456032;32;32769;-92
2022/10/22 12:41:56;;;;;;;;;;;;;;;23.08;35.74;99118.16;4465153;32;33219;-92
2022/10/22 12:44:23;;;;;;;;;;;;;;;22.99;36.16;99118.50;4447413;32;35047;-92
2022/10/22 12:46:50;;;;;;;;;;;;;;;23.73;35.16;99114.66;4427456;32;33929;-91
2022/10/22 12:49:41;;;;;;;;;;;;;;;22.87;36.06;99126.88;4455266;32;34113;-91
2022/10/22 12:52:27;;;;;;;;;;;;;;;22.72;36.89;99129.16;4443108;32;34578;-91
2022/10/22 12:54:54;;;;;;;;;;;;;;;23.20;36.53;99127.38;4460027;32;34324;-91
2022/10/22 12:57:23;;;;;;;;;;;;;;;23.60;35.95;99120.47;4434788;32;34174;-93
2022/10/22 12:59:50;;;;;;;;;;;;;;;23.61;35.74;99128.38;4451200;32;32579;-90
2022/10/22 13:02:20;;;;;;;;;;;;;;;23.74;35.20;99120.81;4453927;32;34013;-92
2022/10/22 13:05:13;;;;;;;;;;;;;;;23.31;35.62;99125.19;4414956;32;33778;-90
2022/10/22 13:07:41;;;;;;;;;;;;;;;22.94;36.88;99125.75;4446100;32;34209;-94